createdAt,value
2018-07-19T00:00:10.515Z,55.20
2018-07-19T00:02:38.068Z,54.70
2018-07-19T00:05:05.743Z,54.70
2018-07-19T00:07:33.497Z,54.80
2018-07-19T00:10:01.081Z,54.80
2018-07-19T00:12:28.715Z,54.80
2018-07-19T00:14:56.404Z,55.60
2018-07-19T00:17:23.980Z,56.00
2018-07-19T00:19:51.579Z,56.60
2018-07-19T00:22:19.244Z,56.80
2018-07-19T00:24:46.824Z,57.00
2018-07-19T00:27:14.347Z,57.80
2018-07-19T00:29:41.915Z,58.40
2018-07-19T00:32:09.527Z,58.00
2018-07-19T00:34:37.556Z,58.10
2018-07-19T00:37:06.425Z,59.00
2018-07-19T00:39:34.300Z,59.40
2018-07-19T00:42:02.760Z,59.20
2018-07-19T00:44:30.687Z,59.30
2018-07-19T00:49:26.761Z,60.40
2018-07-19T00:51:58.033Z,59.90
2018-07-19T00:54:26.362Z,60.20
2018-07-19T00:56:53.947Z,60.30
2018-07-19T00:59:21.567Z,60.30
2018-07-19T01:01:49.115Z,60.30
2018-07-19T01:04:16.760Z,60.90
2018-07-19T01:06:44.351Z,60.20
2018-07-19T01:09:11.994Z,60.30
2018-07-19T01:11:40.094Z,60.30
2018-07-19T01:14:08.174Z,60.40
2018-07-19T01:16:35.711Z,60.70
2018-07-19T01:21:31.172Z,61.40
2018-07-19T01:23:58.695Z,61.70
2018-07-19T01:28:54.076Z,62.00
2018-07-19T01:31:22.042Z,62.00
2018-07-19T01:33:49.693Z,62.30
2018-07-19T01:36:17.328Z,62.10
2018-07-19T01:38:44.843Z,62.70
2018-07-19T01:41:23.831Z,63.10
2018-07-19T01:43:51.363Z,63.20
2018-07-19T01:46:18.963Z,63.50
2018-07-19T01:48:46.512Z,63.60
2018-07-19T01:51:14.076Z,63.40
2018-07-19T01:53:41.635Z,63.70
2018-07-19T01:56:09.211Z,63.50
2018-07-19T01:58:36.821Z,64.70
2018-07-19T02:01:04.394Z,64.40
2018-07-19T02:03:31.983Z,64.50
2018-07-19T02:05:59.624Z,64.90
2018-07-19T02:08:27.173Z,64.80
2018-07-19T02:10:54.704Z,65.00
2018-07-19T02:13:22.217Z,64.90
2018-07-19T02:15:49.756Z,65.10
2018-07-19T02:18:17.327Z,65.10
2018-07-19T02:20:45.389Z,65.60
2018-07-19T02:23:13.510Z,65.50
2018-07-19T02:25:41.087Z,65.50
2018-07-19T02:28:08.683Z,66.60
2018-07-19T02:30:36.325Z,66.90
2018-07-19T02:33:03.889Z,66.20
2018-07-19T02:35:31.581Z,66.20
2018-07-19T02:37:59.184Z,66.20
2018-07-19T02:40:26.771Z,66.60
2018-07-19T02:42:54.429Z,66.80
2018-07-19T02:45:22.093Z,66.30
2018-07-19T02:47:49.716Z,66.20
2018-07-19T02:50:17.443Z,66.40
2018-07-19T02:52:44.993Z,66.60
2018-07-19T02:55:17.569Z,66.50
2018-07-19T02:57:45.191Z,66.10
2018-07-19T03:00:12.932Z,65.90
2018-07-19T03:02:40.553Z,67.10
2018-07-19T03:05:08.194Z,66.70
2018-07-19T03:07:35.725Z,66.90
2018-07-19T03:10:03.587Z,67.50
2018-07-19T03:12:31.131Z,67.30
2018-07-19T03:14:58.680Z,67.70
2018-07-19T03:17:26.243Z,67.50
2018-07-19T03:19:53.725Z,67.50
2018-07-19T03:22:21.300Z,68.10
2018-07-19T03:24:48.962Z,68.50
2018-07-19T03:27:16.635Z,67.90
2018-07-19T03:29:44.340Z,68.60
2018-07-19T03:32:11.981Z,68.40
2018-07-19T03:34:39.551Z,68.00
2018-07-19T03:37:07.269Z,68.30
2018-07-19T03:39:34.789Z,68.70
2018-07-19T03:42:02.361Z,69.30
2018-07-19T03:44:29.902Z,69.50
2018-07-19T03:46:57.498Z,69.50
2018-07-19T03:49:25.054Z,69.60
2018-07-19T03:51:52.992Z,69.50
2018-07-19T03:54:21.001Z,69.60
2018-07-19T03:56:48.723Z,69.60
2018-07-19T03:59:16.378Z,69.60
2018-07-19T04:01:43.911Z,69.60
2018-07-19T04:04:11.513Z,69.60
2018-07-19T04:09:07.305Z,69.60
2018-07-19T04:11:34.959Z,69.50
2018-07-19T04:14:02.601Z,69.50
2018-07-19T04:16:30.160Z,69.50
2018-07-19T04:18:58.066Z,69.60
2018-07-19T04:21:25.714Z,69.60
2018-07-19T04:23:53.287Z,69.60
2018-07-19T04:26:20.875Z,69.50
2018-07-19T04:28:48.561Z,69.60
2018-07-19T04:31:16.188Z,70.30
2018-07-19T04:33:43.789Z,70.00
2018-07-19T04:36:11.485Z,69.70
2018-07-19T04:38:39.179Z,69.90
2018-07-19T04:41:06.760Z,70.20
2018-07-19T04:43:34.380Z,71.30
2018-07-19T04:46:02.028Z,69.40
2018-07-19T04:48:29.588Z,68.90
2018-07-19T04:50:57.152Z,68.20
2018-07-19T04:53:24.811Z,67.90
2018-07-19T04:55:52.626Z,69.40
2018-07-19T04:58:20.321Z,67.80
2018-07-19T05:00:48.447Z,68.40
2018-07-19T05:03:16.130Z,67.80
2018-07-19T05:05:43.816Z,67.40
2018-07-19T05:08:11.352Z,67.40
2018-07-19T05:10:38.898Z,66.30
2018-07-19T05:13:06.450Z,66.70
2018-07-19T05:15:33.974Z,67.10
2018-07-19T05:18:02.068Z,66.70
2018-07-19T05:20:29.669Z,66.40
2018-07-19T05:22:57.244Z,67.00
2018-07-19T05:25:25.089Z,67.20
2018-07-19T05:27:53.346Z,66.10
2018-07-19T05:30:21.079Z,65.10
2018-07-19T05:32:48.966Z,65.60
2018-07-19T05:35:16.670Z,65.80
2018-07-19T05:37:44.432Z,66.40
2018-07-19T05:40:12.270Z,65.60
2018-07-19T05:42:40.226Z,64.80
2018-07-19T05:45:08.394Z,64.40
2018-07-19T05:47:36.266Z,63.10
2018-07-19T05:50:04.374Z,62.70
2018-07-19T05:52:32.071Z,61.90
2018-07-19T05:54:59.757Z,60.60
2018-07-19T05:57:27.480Z,56.10
2018-07-19T06:02:23.258Z,48.20
2018-07-19T06:04:50.917Z,44.80
2018-07-19T06:07:18.624Z,43.90
2018-07-19T06:09:46.435Z,41.90
2018-07-19T06:12:14.095Z,42.70
2018-07-19T06:14:41.729Z,41.90
2018-07-19T06:17:09.752Z,42.30
2018-07-19T06:19:37.392Z,41.90
2018-07-19T06:22:05.054Z,41.90
2018-07-19T06:24:32.884Z,42.50
2018-07-19T06:27:00.905Z,42.60
2018-07-19T06:29:28.476Z,41.30
2018-07-19T06:31:56.612Z,41.00
2018-07-19T06:34:24.280Z,41.00
2018-07-19T06:36:52.144Z,40.30
2018-07-19T06:39:19.735Z,41.10
2018-07-19T06:41:47.337Z,39.00
2018-07-19T06:44:14.985Z,39.10
2018-07-19T06:46:42.709Z,38.90
2018-07-19T06:49:11.073Z,37.50
2018-07-19T06:51:39.049Z,37.10
2018-07-19T06:54:07.014Z,36.40
2018-07-19T06:56:34.577Z,36.30
2018-07-19T06:59:02.223Z,35.00
2018-07-19T07:01:29.936Z,35.00
2018-07-19T07:03:57.839Z,34.70
2018-07-19T07:06:25.546Z,35.00
2018-07-19T07:08:53.354Z,35.10
2018-07-19T07:11:21.008Z,35.30
2018-07-19T07:13:48.755Z,35.40
2018-07-19T07:16:17.392Z,35.20
2018-07-19T07:18:44.913Z,33.00
2018-07-19T07:21:12.930Z,31.50
2018-07-19T07:23:40.523Z,30.70
2018-07-19T07:26:08.136Z,29.90
2018-07-19T07:28:38.451Z,31.20
2018-07-19T07:31:06.844Z,33.20
2018-07-19T07:33:34.479Z,34.40
2018-07-19T07:36:02.107Z,35.80
2018-07-19T07:40:57.301Z,38.70
2018-07-19T07:43:25.042Z,41.90
2018-07-19T07:45:52.682Z,44.60
2018-07-19T07:48:20.515Z,45.30
2018-07-19T07:50:48.076Z,44.90
2018-07-19T07:53:15.869Z,45.70
2018-07-19T07:55:43.454Z,45.50
2018-07-19T07:58:11.070Z,44.00
2018-07-19T08:00:38.725Z,45.40
2018-07-19T08:03:06.617Z,45.90
2018-07-19T08:05:34.299Z,46.00
2018-07-19T08:08:01.917Z,44.70
2018-07-19T08:10:29.576Z,44.00
2018-07-19T08:12:57.238Z,44.20
2018-07-19T08:15:24.918Z,46.20
2018-07-19T08:17:52.593Z,44.00
2018-07-19T08:20:20.207Z,43.70
2018-07-19T08:22:47.878Z,43.30
2018-07-19T08:25:15.524Z,42.00
2018-07-19T08:27:43.145Z,40.40
2018-07-19T08:30:10.784Z,40.50
2018-07-19T08:32:38.571Z,40.70
2018-07-19T08:35:06.243Z,40.10
2018-07-19T08:37:34.036Z,42.10
2018-07-19T08:40:02.175Z,40.40
2018-07-19T08:42:29.915Z,39.50
2018-07-19T08:44:57.520Z,38.80
2018-07-19T08:50:21.827Z,39.00
2018-07-19T08:52:49.591Z,39.30
2018-07-19T08:55:17.390Z,37.50
2018-07-19T08:57:45.068Z,37.80
2018-07-19T09:00:12.738Z,37.10
2018-07-19T09:02:40.336Z,37.00
2018-07-19T09:05:08.062Z,36.50
2018-07-19T09:07:35.988Z,36.20
2018-07-19T09:10:04.059Z,36.50
2018-07-19T09:12:31.725Z,37.80
2018-07-19T09:14:59.392Z,35.00
2018-07-19T09:17:26.979Z,34.60
2018-07-19T09:19:54.717Z,33.60
2018-07-19T09:22:22.670Z,32.90
2018-07-19T09:24:50.342Z,32.10
2018-07-19T09:27:18.197Z,32.60
2018-07-19T09:29:45.812Z,33.20
2018-07-19T09:32:13.667Z,32.10
2018-07-19T09:34:41.457Z,31.40
2018-07-19T09:37:12.313Z,34.80
2018-07-19T09:39:39.973Z,33.40
2018-07-19T09:42:08.300Z,34.40
2018-07-19T09:44:36.847Z,34.30
2018-07-19T09:47:04.513Z,35.40
2018-07-19T09:49:32.112Z,36.30
2018-07-19T09:51:59.750Z,34.90
2018-07-19T09:54:39.564Z,34.80
2018-07-19T09:57:07.240Z,33.90
2018-07-19T09:59:35.005Z,35.20
2018-07-19T10:02:03.501Z,34.90
2018-07-19T10:04:31.292Z,34.80
2018-07-19T10:06:58.820Z,34.30
2018-07-19T10:09:27.200Z,35.60
2018-07-19T10:11:54.787Z,35.90
2018-07-19T10:14:22.568Z,37.40
2018-07-19T10:16:50.732Z,34.20
2018-07-19T10:19:19.718Z,33.60
2018-07-19T10:21:49.711Z,33.70
2018-07-19T10:24:17.536Z,34.00
2018-07-19T10:26:45.097Z,33.10
2018-07-19T10:31:54.236Z,33.80
2018-07-19T10:34:21.971Z,33.60
2018-07-19T10:36:49.652Z,34.50
2018-07-19T10:39:18.563Z,32.60
2018-07-19T10:41:46.284Z,32.80
2018-07-19T10:44:14.010Z,32.50
2018-07-19T10:46:41.789Z,31.40
2018-07-19T10:49:09.475Z,32.40
2018-07-19T10:51:37.571Z,31.00
2018-07-19T10:54:05.216Z,31.80
2018-07-19T10:59:00.580Z,32.50
2018-07-19T11:01:28.160Z,31.70
2018-07-19T11:03:56.094Z,31.60
2018-07-19T11:06:24.597Z,31.50
2018-07-19T11:08:52.194Z,32.40
2018-07-19T11:11:19.919Z,30.60
2018-07-19T11:13:47.481Z,31.80
2018-07-19T11:16:15.080Z,30.60
2018-07-19T11:21:10.668Z,31.70
2018-07-19T11:23:38.247Z,30.30
2018-07-19T11:26:05.964Z,29.40
2018-07-19T11:28:34.112Z,29.60
2018-07-19T11:31:01.725Z,29.40
2018-07-19T11:33:29.747Z,29.70
2018-07-19T11:35:57.293Z,29.40
2018-07-19T11:38:25.671Z,29.60
2018-07-19T11:40:53.217Z,29.50
2018-07-19T11:43:20.972Z,29.20
2018-07-19T11:45:48.709Z,29.00
2018-07-19T11:48:16.357Z,28.40
2018-07-19T11:50:44.011Z,28.70
2018-07-19T11:53:11.507Z,29.70
2018-07-19T11:55:43.659Z,29.70
2018-07-19T11:58:11.340Z,29.10
2018-07-19T12:00:39.110Z,29.60
2018-07-19T12:03:06.828Z,29.20
2018-07-19T12:05:34.413Z,30.40
2018-07-19T12:08:02.026Z,32.00
2018-07-19T12:10:29.884Z,30.80
2018-07-19T12:12:57.528Z,29.70
2018-07-19T12:15:26.155Z,29.20
2018-07-19T12:17:53.726Z,30.40
2018-07-19T12:20:21.334Z,29.30
2018-07-19T12:22:49.013Z,29.10
2018-07-19T12:25:16.867Z,31.70
2018-07-19T12:27:44.458Z,31.10
2018-07-19T12:30:13.103Z,30.50
2018-07-19T12:32:45.290Z,29.50
2018-07-19T12:35:13.033Z,28.80
2018-07-19T12:37:40.798Z,27.80
2018-07-19T12:40:08.501Z,27.90
2018-07-19T12:42:36.394Z,27.20
2018-07-19T12:45:05.518Z,27.30
2018-07-19T12:47:33.143Z,27.10
2018-07-19T12:50:00.733Z,27.20
2018-07-19T12:52:28.808Z,27.10
2018-07-19T12:55:00.996Z,26.80
2018-07-19T12:57:28.653Z,26.10
2018-07-19T12:59:56.245Z,27.10
2018-07-19T13:02:23.934Z,26.10
2018-07-19T13:04:51.538Z,27.40
2018-07-19T13:07:23.997Z,26.20
2018-07-19T13:09:52.528Z,26.50
2018-07-19T13:12:20.488Z,26.90
2018-07-19T13:14:48.367Z,25.10
2018-07-19T13:17:16.182Z,26.60
2018-07-19T13:19:44.049Z,26.60
2018-07-19T13:22:11.597Z,28.50
2018-07-19T13:24:39.205Z,26.90
2018-07-19T13:27:06.728Z,27.50
2018-07-19T13:29:34.335Z,27.50
2018-07-19T13:32:02.462Z,26.30
2018-07-19T13:34:30.053Z,26.60
2018-07-19T13:36:57.596Z,25.60
2018-07-19T13:39:29.392Z,24.60
2018-07-19T13:41:57.033Z,25.10
2018-07-19T13:44:24.576Z,25.90
2018-07-19T13:46:52.127Z,25.90
2018-07-19T13:49:19.860Z,26.80
2018-07-19T13:51:47.623Z,27.10
2018-07-19T13:54:26.944Z,26.20
2018-07-19T13:56:54.534Z,26.40
2018-07-19T13:59:22.178Z,26.70
2018-07-19T14:01:49.756Z,27.50
2018-07-19T14:04:17.444Z,26.40
2018-07-19T14:06:45.572Z,26.40
2018-07-19T14:09:14.458Z,26.90
2018-07-19T14:11:42.034Z,27.20
2018-07-19T14:14:10.122Z,26.40
2018-07-19T14:16:37.799Z,26.70
2018-07-19T14:19:05.643Z,26.60
2018-07-19T14:21:33.416Z,27.00
2018-07-19T14:24:00.958Z,26.00
2018-07-19T14:26:28.783Z,26.30
2018-07-19T14:28:57.124Z,26.60
2018-07-19T14:31:24.665Z,26.70
2018-07-19T14:33:52.341Z,26.80
2018-07-19T14:36:19.981Z,26.70
2018-07-19T14:38:47.644Z,27.50
2018-07-19T14:41:15.456Z,26.40
2018-07-19T14:43:43.068Z,27.20
2018-07-19T14:46:10.667Z,26.60
2018-07-19T14:48:38.354Z,27.70
2018-07-19T14:51:05.954Z,27.10
2018-07-19T14:53:33.793Z,26.20
2018-07-19T14:56:01.312Z,25.50
2018-07-19T14:58:28.832Z,26.50
2018-07-19T15:00:56.381Z,26.10
2018-07-19T15:03:23.990Z,26.10
2018-07-19T15:05:52.062Z,26.50
2018-07-19T15:08:19.606Z,27.20
2018-07-19T15:10:47.201Z,25.80
2018-07-19T15:13:14.754Z,26.20
2018-07-19T15:15:42.458Z,27.00
2018-07-19T15:18:10.163Z,26.90
2018-07-19T15:20:37.714Z,27.40
2018-07-19T15:23:05.713Z,26.90
2018-07-19T15:25:33.312Z,27.00
2018-07-19T15:28:00.945Z,26.50
2018-07-19T15:30:29.065Z,27.20
2018-07-19T15:32:56.604Z,27.20
2018-07-19T15:35:24.106Z,27.40
2018-07-19T15:37:51.666Z,26.00
2018-07-19T15:40:19.416Z,26.80
2018-07-19T15:42:47.744Z,26.90
2018-07-19T15:45:15.381Z,27.00
2018-07-19T15:47:43.248Z,27.10
2018-07-19T15:50:10.808Z,28.20
2018-07-19T15:52:38.478Z,26.30
2018-07-19T15:55:06.195Z,27.10
2018-07-19T15:57:34.411Z,26.70
2018-07-19T16:00:01.982Z,27.30
2018-07-19T16:02:29.581Z,27.20
2018-07-19T16:04:57.727Z,27.00
2018-07-19T16:07:25.320Z,27.30
2018-07-19T16:09:53.341Z,26.70
2018-07-19T16:12:20.917Z,26.30
2018-07-19T16:14:48.554Z,26.70
2018-07-19T16:17:16.419Z,26.80
2018-07-19T16:19:43.962Z,27.70
2018-07-19T16:22:11.532Z,28.20
2018-07-19T16:24:40.145Z,27.10
2018-07-19T16:27:07.761Z,27.10
2018-07-19T16:29:35.372Z,28.10
2018-07-19T16:32:03.006Z,27.90
2018-07-19T16:34:30.714Z,27.20
2018-07-19T16:36:58.330Z,27.40
2018-07-19T16:39:25.970Z,27.20
2018-07-19T16:41:53.542Z,27.40
2018-07-19T16:44:21.201Z,27.30
2018-07-19T16:46:48.813Z,27.50
2018-07-19T16:49:16.364Z,26.60
2018-07-19T16:51:43.895Z,26.80
2018-07-19T16:54:11.545Z,26.90
2018-07-19T16:56:39.446Z,26.80
2018-07-19T16:59:06.958Z,27.60
2018-07-19T17:01:34.519Z,27.00
2018-07-19T17:04:02.593Z,26.50
2018-07-19T17:06:30.110Z,27.40
2018-07-19T17:08:57.727Z,28.00
2018-07-19T17:11:25.329Z,27.70
2018-07-19T17:16:20.398Z,26.90
2018-07-19T17:18:48.145Z,27.20
2018-07-19T17:21:15.719Z,27.40
2018-07-19T17:23:43.429Z,27.70
2018-07-19T17:26:11.543Z,27.60
2018-07-19T17:28:39.351Z,27.30
2018-07-19T17:31:07.088Z,27.90
2018-07-19T17:33:35.210Z,27.00
2018-07-19T17:36:02.932Z,27.00
2018-07-19T17:38:30.662Z,27.30
2018-07-19T17:40:58.697Z,27.60
2018-07-19T17:45:54.078Z,28.00
2018-07-19T17:48:21.752Z,27.70
2018-07-19T17:50:49.419Z,28.10
2018-07-19T17:53:17.304Z,28.40
2018-07-19T17:55:45.110Z,28.90
2018-07-19T17:58:12.725Z,28.80
2018-07-19T18:00:40.358Z,28.30
2018-07-19T18:03:08.059Z,29.30
2018-07-19T18:05:35.673Z,28.60
2018-07-19T18:08:03.572Z,28.60
2018-07-19T18:12:58.731Z,28.50
2018-07-19T18:15:26.425Z,28.50
2018-07-19T18:17:54.285Z,28.50
2018-07-19T18:20:22.038Z,28.40
2018-07-19T18:25:17.313Z,28.40
2018-07-19T18:27:44.950Z,28.40
2018-07-19T18:30:12.582Z,28.40
2018-07-19T18:32:40.175Z,28.90
2018-07-19T18:35:07.840Z,28.30
2018-07-19T18:37:35.425Z,28.30
2018-07-19T18:40:03.077Z,28.30
2018-07-19T18:42:30.658Z,28.80
2018-07-19T18:44:58.236Z,29.30
2018-07-19T18:47:25.897Z,29.20
2018-07-19T18:49:53.563Z,29.60
2018-07-19T18:52:22.333Z,29.60
2018-07-19T18:54:50.221Z,29.90
2018-07-19T18:57:17.833Z,29.60
2018-07-19T18:59:45.643Z,30.30
2018-07-19T19:02:13.426Z,30.50
2018-07-19T19:04:41.437Z,30.90
2018-07-19T19:07:09.106Z,31.40
2018-07-19T19:09:36.732Z,31.80
2018-07-19T19:12:05.024Z,31.70
2018-07-19T19:14:32.734Z,31.90
2018-07-19T19:17:00.380Z,32.90
2018-07-19T19:19:28.648Z,32.00
2018-07-19T19:21:57.046Z,32.20
2018-07-19T19:24:24.837Z,32.00
2018-07-19T19:26:52.584Z,33.10
2018-07-19T19:29:20.419Z,33.30
2018-07-19T19:31:48.352Z,32.80
2018-07-19T19:34:16.136Z,33.60
2018-07-19T19:36:43.736Z,33.50
2018-07-19T19:39:12.758Z,33.40
2018-07-19T19:41:40.985Z,34.30
2018-07-19T19:44:09.073Z,34.20
2018-07-19T19:46:36.644Z,34.00
2018-07-19T19:49:04.344Z,33.90
2018-07-19T19:51:32.331Z,34.40
2018-07-19T19:53:59.986Z,34.70
2018-07-19T19:56:27.863Z,35.30
2018-07-19T19:58:55.559Z,35.20
2018-07-19T20:01:23.401Z,35.70
2018-07-19T20:03:51.172Z,35.70
2018-07-19T20:06:19.039Z,35.60
2018-07-19T20:08:46.961Z,35.30
2018-07-19T20:11:15.255Z,35.80
2018-07-19T20:13:42.912Z,36.10
2018-07-19T20:16:11.425Z,35.90
2018-07-19T20:18:40.175Z,36.10
2018-07-19T20:21:07.984Z,36.50
2018-07-19T20:23:35.606Z,36.30
2018-07-19T20:26:03.261Z,37.00
2018-07-19T20:28:31.057Z,38.10
2018-07-19T20:30:58.662Z,38.60
2018-07-19T20:33:26.284Z,39.20
2018-07-19T20:35:54.062Z,36.10
2018-07-19T20:38:22.345Z,37.60
2018-07-19T20:40:50.188Z,38.50
2018-07-19T20:43:17.843Z,38.30
2018-07-19T20:45:45.434Z,38.50
2018-07-19T20:48:13.089Z,38.40
2018-07-19T20:50:40.817Z,38.40
2018-07-19T20:53:08.561Z,37.30
2018-07-19T20:55:36.169Z,35.80
2018-07-19T20:58:04.204Z,38.10
2018-07-19T21:00:31.835Z,37.10
2018-07-19T21:02:59.638Z,36.90
2018-07-19T21:05:27.332Z,36.00
2018-07-19T21:07:54.924Z,36.60
2018-07-19T21:10:22.826Z,36.50
2018-07-19T21:12:50.495Z,37.10
2018-07-19T21:15:18.249Z,33.70
2018-07-19T21:17:45.838Z,34.50
2018-07-19T21:20:13.552Z,34.60
2018-07-19T21:22:41.180Z,35.00
2018-07-19T21:25:09.036Z,35.20
2018-07-19T21:27:39.511Z,35.00
2018-07-19T21:30:07.800Z,37.10
2018-07-19T21:32:35.502Z,35.90
2018-07-19T21:35:03.220Z,37.60
2018-07-19T21:37:30.960Z,38.70
2018-07-19T21:39:58.621Z,38.40
2018-07-19T21:42:26.598Z,36.00
2018-07-19T21:44:54.224Z,36.00
2018-07-19T21:47:22.518Z,34.40
2018-07-19T21:49:50.205Z,35.20
2018-07-19T21:52:17.807Z,35.40
2018-07-19T21:54:45.431Z,34.50
2018-07-19T21:57:13.140Z,33.50
2018-07-19T21:59:40.743Z,32.90
2018-07-19T22:02:08.774Z,32.20
2018-07-19T22:04:36.582Z,33.90
2018-07-19T22:07:04.602Z,33.00
2018-07-19T22:09:32.277Z,32.40
2018-07-19T22:11:59.988Z,33.90
2018-07-19T22:14:28.126Z,32.00
2018-07-19T22:16:55.951Z,32.40
2018-07-19T22:19:23.599Z,32.30
2018-07-19T22:21:51.377Z,31.90
2018-07-19T22:24:19.099Z,32.10
2018-07-19T22:26:46.731Z,33.00
2018-07-19T22:29:14.318Z,32.20
2018-07-19T22:31:41.989Z,32.10
2018-07-19T22:34:09.606Z,30.80
2018-07-19T22:36:37.379Z,30.50
2018-07-19T22:39:08.062Z,32.30
2018-07-19T22:41:36.040Z,32.00
2018-07-19T22:44:05.248Z,34.70
2018-07-19T22:46:40.164Z,34.30
2018-07-19T22:49:11.796Z,33.20
2018-07-19T22:51:44.471Z,35.00
2018-07-19T22:54:13.996Z,35.70
2018-07-19T22:59:11.101Z,37.10
2018-07-19T23:01:42.405Z,37.50
2018-07-19T23:06:44.311Z,37.30
2018-07-19T23:09:12.699Z,38.20
2018-07-19T23:11:40.466Z,38.50
2018-07-19T23:14:09.221Z,38.20
2018-07-19T23:16:41.480Z,39.90
2018-07-19T23:19:09.039Z,39.40
2018-07-19T23:21:38.665Z,39.50
2018-07-19T23:24:06.327Z,40.10
2018-07-19T23:26:34.644Z,40.00
2018-07-19T23:29:02.314Z,40.80
2018-07-19T23:31:33.122Z,40.60
2018-07-19T23:34:02.799Z,40.60
2018-07-19T23:36:36.054Z,40.20
2018-07-19T23:39:12.900Z,40.50
2018-07-19T23:41:45.857Z,41.10
2018-07-19T23:44:18.089Z,41.70
2018-07-19T23:46:51.962Z,42.50
2018-07-19T23:49:25.316Z,42.70
2018-07-19T23:51:56.663Z,42.70
2018-07-19T23:54:30.947Z,43.20
2018-07-19T23:57:04.297Z,43.20
2018-07-19T23:59:31.931Z,43.10
